Time;durP1;ratioP1;P1;durP2;ratioP2;P2;SDS_P1;SDS_P2;PMS_P1;PMS_P2;Temp;Humidity;BMP_temperature;BMP_pressure;BME280_temperature;BME280_humidity;BME280_pressure;Samples;Min_cycle;Max_cycle;Signal;HPM_P1;HPM_P2
2023/03/07 00:01:27;;;;;;;31.37;20.90;;;2.80;99.50;;;1.84;78.59;99133.00;5053390;28;20190;-74
2023/03/07 00:03:59;;;;;;;35.23;21.47;;;2.90;99.60;;;1.84;78.66;99127.72;5053552;28;20320;-73
2023/03/07 00:06:32;;;;;;;30.57;21.27;;;2.90;99.70;;;1.86;78.45;99121.31;5053350;28;20193;-74
2023/03/07 00:09:05;;;;;;;30.50;21.03;;;2.90;99.50;;;1.85;78.52;99113.56;5052929;28;20190;-74
2023/03/07 00:11:41;;;;;;;34.77;22.63;;;2.80;99.60;;;1.85;78.91;99110.91;5053287;28;20190;-74
2023/03/07 00:14:14;;;;;;;34.07;21.83;;;2.90;99.60;;;1.86;78.26;99097.56;5053113;28;20295;-74
2023/03/07 00:16:49;;;;;;;37.40;24.07;;;2.90;99.60;;;1.86;78.95;99099.38;5052991;28;20241;-74
2023/03/07 00:19:21;;;;;;;33.43;20.77;;;2.90;99.80;;;1.87;78.54;99101.03;5052920;28;20631;-74
2023/03/07 00:21:53;;;;;;;34.40;22.63;;;2.90;99.50;;;1.85;78.86;99089.81;5053210;28;20187;-74
2023/03/07 00:24:25;;;;;;;29.40;19.87;;;2.90;99.70;;;1.84;78.94;99080.22;5052795;28;20222;-74
2023/03/07 00:26:57;;;;;;;33.53;21.33;;;2.90;99.80;;;1.85;78.77;99077.41;5053183;28;20194;-74
2023/03/07 00:29:30;;;;;;;29.80;20.53;;;2.90;99.80;;;1.85;78.95;99066.06;5052764;28;20233;-74
2023/03/07 00:32:03;;;;;;;40.83;25.23;;;2.90;99.80;;;1.85;79.34;99066.88;5053111;28;20191;-74
2023/03/07 00:34:35;;;;;;;30.53;20.50;;;2.90;99.80;;;1.84;79.12;99059.94;5052710;28;20272;-74
2023/03/07 00:37:06;;;;;;;36.73;24.07;;;2.90;99.80;;;1.86;79.49;99051.88;5052759;28;20596;-74
2023/03/07 00:39:38;;;;;;;40.63;25.40;;;2.90;99.90;;;1.85;79.98;99050.22;5052743;28;20569;-74
2023/03/07 00:42:10;;;;;;;59.40;30.90;;;2.90;99.90;;;1.84;80.43;99049.38;5052934;28;20212;-74
2023/03/07 00:44:42;;;;;;;38.77;24.77;;;2.90;99.90;;;1.84;80.34;99040.66;5052943;28;20258;-73
2023/03/07 00:47:15;;;;;;;36.50;23.30;;;2.90;99.90;;;1.83;80.91;99033.69;5052970;28;20213;-73
2023/03/07 00:49:47;;;;;;;36.90;25.47;;;2.90;99.90;;;1.82;81.16;99035.50;5053330;28;20241;-74
2023/03/07 00:52:19;;;;;;;31.87;22.50;;;2.90;99.90;;;1.81;81.57;99022.47;5053280;28;20214;-74
2023/03/07 00:54:52;;;;;;;32.80;22.50;;;2.90;99.90;;;1.79;82.04;99014.69;5052865;28;20234;-73
2023/03/07 00:57:23;;;;;;;31.17;21.97;;;2.80;99.90;;;1.81;82.03;99011.91;5054566;28;20197;-74
2023/03/07 00:59:55;;;;;;;27.10;19.67;;;2.90;99.90;;;1.82;82.02;99008.28;5056624;28;20189;-74
2023/03/07 01:02:28;;;;;;;28.93;19.87;;;2.90;99.90;;;1.84;81.68;99007.19;5056556;28;20198;-74
2023/03/07 01:05:00;;;;;;;30.67;20.37;;;2.90;99.90;;;1.87;81.78;98998.13;5056470;28;20233;-74
2023/03/07 01:07:32;;;;;;;29.30;19.20;;;2.90;99.90;;;1.89;81.80;98994.34;5056134;28;20535;-74
2023/03/07 01:10:04;;;;;;;29.07;20.07;;;2.90;99.90;;;1.89;82.00;98988.25;5055998;28;20206;-73
2023/03/07 01:12:36;;;;;;;29.20;19.73;;;2.90;99.90;;;1.89;82.49;98982.97;5056113;28;20190;-74
2023/03/07 01:15:10;;;;;;;30.53;21.47;;;2.90;99.90;;;1.89;82.79;98975.88;5056238;28;20214;-73
2023/03/07 01:17:43;;;;;;;29.23;19.83;;;2.90;99.90;;;1.90;82.60;98974.06;5056311;28;20594;-73
2023/03/07 01:20:16;;;;;;;30.00;20.23;;;2.90;99.90;;;1.94;82.35;98959.63;5055995;28;20643;-73
2023/03/07 01:22:49;;;;;;;29.17;20.37;;;3.00;99.90;;;1.94;83.34;98964.88;5055881;28;20189;-73
2023/03/07 01:25:21;;;;;;;33.87;19.80;;;3.00;99.90;;;1.92;83.01;98956.28;5056142;28;20194;-73
2023/03/07 01:27:56;;;;;;;31.23;20.13;;;2.90;99.90;;;1.94;82.97;98949.06;5056082;28;20190;-73
2023/03/07 01:30:29;;;;;;;28.87;19.60;;;3.00;99.90;;;1.93;83.55;98950.03;5055996;28;20210;-74
2023/03/07 01:33:04;;;;;;;28.20;19.03;;;2.90;99.90;;;1.93;83.78;98939.47;5055949;28;20305;-73
2023/03/07 01:35:42;;;;;;;32.63;20.07;;;3.00;99.90;;;1.89;84.08;98933.66;5055993;28;20205;-73
2023/03/07 01:38:14;;;;;;;30.23;20.43;;;2.90;99.90;;;1.87;84.63;98924.25;5056015;28;20193;-73
2023/03/07 01:40:45;;;;;;;31.73;20.63;;;2.90;99.90;;;1.90;84.33;98918.66;5055882;28;20260;-73
2023/03/07 01:43:29;;;;;;;31.17;21.40;;;2.90;99.90;;;1.90;84.89;98923.94;5055490;28;20254;-73
2023/03/07 01:46:41;;;;;;;27.93;18.53;;;2.90;99.90;;;1.93;85.03;98899.88;5055448;28;20643;-74
2023/03/07 01:49:19;;;;;;;30.37;19.10;;;2.90;99.90;;;1.92;85.27;98911.41;5055676;28;20221;-74
2023/03/07 01:51:56;;;;;;;28.07;19.17;;;2.90;99.90;;;1.95;84.81;98898.75;5055823;28;20220;-74
2023/03/07 01:54:31;;;;;;;27.27;17.37;;;3.00;99.90;;;1.95;85.29;98892.66;5055514;28;20275;-74
2023/03/07 01:57:04;;;;;;;27.90;18.23;;;3.00;99.90;;;1.97;84.73;98891.53;5055585;28;20190;-74
2023/03/07 01:59:40;;;;;;;27.83;17.93;;;3.00;99.90;;;1.96;85.52;98892.50;5055182;28;20202;-74
2023/03/07 02:02:18;;;;;;;28.40;17.27;;;3.00;99.90;;;1.95;85.53;98882.91;5055442;28;20201;-74
2023/03/07 02:04:59;;;;;;;30.97;18.90;;;3.00;99.90;;;1.96;85.60;98891.66;5055364;28;20236;-74
2023/03/07 02:07:37;;;;;;;25.47;16.93;;;3.00;99.90;;;1.95;86.15;98882.13;5055080;28;20183;-73
2023/03/07 02:10:13;;;;;;;23.40;16.67;;;3.00;99.90;;;1.95;86.45;98882.13;5054368;28;20194;-74
2023/03/07 02:12:45;;;;;;;24.00;16.03;;;3.00;99.90;;;1.92;86.72;98870.03;5054901;28;20643;-73
2023/03/07 02:15:18;;;;;;;22.83;15.67;;;3.00;99.90;;;1.91;87.05;98871.03;5055046;28;20216;-73
2023/03/07 02:17:52;;;;;;;23.63;15.53;;;2.90;99.90;;;1.90;86.55;98863.25;5055139;28;20200;-73
2023/03/07 02:20:38;;;;;;;25.47;16.70;;;2.90;99.90;;;1.89;87.13;98858.94;5055142;28;20208;-73
2023/03/07 02:23:15;;;;;;;24.50;15.57;;;2.90;99.90;;;1.84;87.42;98862.06;5055072;28;20236;-73
2023/03/07 02:25:59;;;;;;;23.63;15.60;;;2.90;99.90;;;1.83;87.43;98857.75;5055135;28;20272;-74
2023/03/07 02:28:32;;;;;;;24.20;15.43;;;2.90;99.90;;;1.84;87.78;98853.31;5055403;28;20269;-73
2023/03/07 02:31:07;;;;;;;22.37;15.50;;;2.90;99.90;;;1.83;87.87;98856.91;5055166;28;20285;-73
2023/03/07 02:33:39;;;;;;;24.17;15.83;;;2.90;99.90;;;1.80;88.22;98846.66;5055013;28;20222;-73
2023/03/07 02:36:16;;;;;;;22.83;14.83;;;2.80;99.90;;;1.78;88.03;98853.91;5054825;28;20220;-73
2023/03/07 02:38:51;;;;;;;23.73;15.50;;;2.80;99.90;;;1.79;88.46;98855.56;5054789;28;20190;-73
2023/03/07 02:41:28;;;;;;;23.00;15.20;;;2.80;99.90;;;1.76;88.26;98850.56;5054981;28;20197;-73
2023/03/07 02:44:02;;;;;;;23.63;14.93;;;2.80;99.90;;;1.75;88.58;98844.47;5054626;28;20298;-72
2023/03/07 02:46:34;;;;;;;23.40;15.63;;;2.80;99.90;;;1.75;88.68;98844.47;5054658;28;20193;-72
2023/03/07 02:49:05;;;;;;;23.00;14.23;;;2.80;99.90;;;1.72;88.95;98843.94;5054620;28;20190;-73
2023/03/07 02:51:37;;;;;;;21.97;14.57;;;2.80;99.90;;;1.69;88.77;98844.25;5054460;28;20221;-72
2023/03/07 02:54:10;;;;;;;22.60;15.03;;;2.70;99.90;;;1.70;89.37;98841.47;5054116;28;20714;-73
2023/03/07 02:56:42;;;;;;;24.50;14.70;;;2.70;99.90;;;1.69;89.59;98833.69;5055382;28;20210;-73
2023/03/07 02:59:15;;;;;;;20.77;14.67;;;2.70;99.90;;;1.65;89.30;98838.44;5054279;28;20201;-73
2023/03/07 03:01:47;;;;;;;22.17;14.27;;;2.70;99.90;;;1.66;89.67;98828.72;5054335;28;20182;-72
2023/03/07 03:04:19;;;;;;;22.63;14.40;;;2.70;99.90;;;1.66;89.45;98834.84;5054235;28;20226;-73
2023/03/07 03:06:51;;;;;;;19.20;13.17;;;2.70;99.90;;;1.66;89.12;98831.34;5053963;28;20677;-74
2023/03/07 03:09:24;;;;;;;18.20;12.60;;;2.70;99.90;;;1.66;89.31;98824.28;5053856;28;20558;-73
2023/03/07 03:11:56;;;;;;;18.97;13.30;;;2.70;99.90;;;1.67;89.46;98825.94;5054111;28;20237;-73
2023/03/07 03:14:29;;;;;;;19.47;13.13;;;2.70;99.90;;;1.69;89.95;98817.88;5053875;28;20230;-74
2023/03/07 03:17:03;;;;;;;18.87;13.37;;;2.80;99.90;;;1.69;89.98;98818.69;5054022;28;20217;-73
2023/03/07 03:19:35;;;;;;;19.23;12.53;;;2.70;99.90;;;1.70;90.06;98828.28;5053871;28;20190;-73
2023/03/07 03:22:08;;;;;;;17.70;11.97;;;2.70;99.90;;;1.75;89.49;98814.63;5050796;28;20550;-72
2023/03/07 03:24:43;;;;;;;18.20;12.50;;;2.80;99.90;;;1.80;89.26;98815.00;5052750;28;20230;-72
2023/03/07 03:27:15;;;;;;;17.97;11.83;;;2.80;99.90;;;1.80;89.62;98810.56;5053656;28;20213;-72
2023/03/07 03:29:48;;;;;;;16.70;12.33;;;2.80;99.90;;;1.81;89.81;98816.66;5053761;28;20205;-73
2023/03/07 03:32:20;;;;;;;17.10;12.50;;;2.80;99.90;;;1.83;89.43;98806.78;5053730;28;20210;-74
2023/03/07 03:34:51;;;;;;;17.10;12.43;;;2.80;99.90;;;1.84;89.99;98806.66;5053727;28;20247;-73
2023/03/07 03:37:23;;;;;;;20.03;13.90;;;2.90;99.90;;;1.87;89.66;98802.88;5053550;28;20201;-72
2023/03/07 03:39:56;;;;;;;32.10;19.43;;;2.90;99.90;;;1.91;89.86;98807.69;5053652;28;20198;-74
2023/03/07 03:42:28;;;;;;;39.77;23.17;;;2.90;99.90;;;1.93;89.88;98804.88;5053682;28;20191;-74
2023/03/07 03:45:01;;;;;;;53.17;30.97;;;2.90;99.90;;;1.96;89.23;98800.13;5053838;28;20233;-75
2023/03/07 03:47:33;;;;;;;36.30;21.70;;;3.00;99.90;;;2.01;88.99;98802.31;5053626;28;20201;-75
2023/03/07 03:50:07;;;;;;;37.00;23.17;;;3.00;99.90;;;2.02;89.54;98802.16;5053275;28;20192;-74
2023/03/07 03:52:39;;;;;;;30.47;19.20;;;3.10;99.90;;;2.04;89.41;98794.09;5053533;28;20574;-74
2023/03/07 03:55:12;;;;;;;43.73;26.63;;;3.10;99.90;;;2.06;89.62;98800.03;5053780;28;20194;-74
2023/03/07 03:57:44;;;;;;;18.97;13.73;;;3.10;99.90;;;2.09;89.16;98783.88;5053557;28;20187;-74
2023/03/07 04:00:18;;;;;;;20.83;14.03;;;3.10;99.90;;;2.10;89.74;98803.19;5053492;28;20198;-75
2023/03/07 04:02:51;;;;;;;15.87;11.97;;;3.10;99.90;;;2.11;89.50;98796.94;5053377;28;20186;-74
2023/03/07 04:05:23;;;;;;;16.00;12.27;;;3.10;99.90;;;2.12;89.62;98802.09;5053394;28;20191;-74
2023/03/07 04:07:55;;;;;;;16.90;13.07;;;3.10;99.90;;;2.13;89.93;98794.97;5053087;28;20639;-75
2023/03/07 04:10:27;;;;;;;18.13;13.73;;;3.20;99.90;;;2.13;90.42;98794.97;5053452;28;20191;-75
2023/03/07 04:12:59;;;;;;;17.20;12.97;;;3.10;99.90;;;2.12;90.11;98794.16;5053254;28;20215;-74
2023/03/07 04:15:32;;;;;;;20.43;16.43;;;3.10;99.90;;;2.14;90.28;98792.19;5053021;28;20217;-73
2023/03/07 04:18:04;;;;;;;19.53;14.60;;;3.20;99.90;;;2.15;90.70;98795.66;5053018;28;20187;-75
2023/03/07 04:20:35;;;;;;;15.10;12.73;;;3.20;99.90;;;2.16;90.24;98784.94;5053334;28;20190;-74
2023/03/07 04:23:06;;;;;;;20.10;15.03;;;3.20;99.90;;;2.18;90.74;98790.06;5053636;28;20226;-73
2023/03/07 04:25:38;;;;;;;15.53;12.23;;;3.20;99.90;;;2.18;90.56;98796.19;5053245;28;20194;-75
2023/03/07 04:28:10;;;;;;;17.67;13.30;;;3.20;99.90;;;2.20;90.74;98796.84;5053506;28;20206;-75
2023/03/07 04:30:44;;;;;;;17.47;13.30;;;3.20;99.90;;;2.20;90.83;98801.28;5052891;28;20191;-75
2023/03/07 04:33:16;;;;;;;17.00;13.50;;;3.20;99.90;;;2.20;90.81;98791.56;5055935;28;20233;-73
2023/03/07 04:35:48;;;;;;;18.73;14.23;;;3.20;99.90;;;2.22;90.75;98783.50;5056836;28;20198;-75
2023/03/07 04:38:19;;;;;;;21.77;17.40;;;3.20;99.90;;;2.21;90.99;98777.38;5057120;28;20285;-75
2023/03/07 04:40:51;;;;;;;30.00;21.50;;;3.20;99.90;;;2.20;91.27;98778.38;5057052;28;20205;-75
2023/03/07 04:43:23;;;;;;;19.60;15.53;;;3.20;99.90;;;2.24;91.14;98778.88;5056785;28;20295;-73
2023/03/07 04:45:57;;;;;;;15.23;12.40;;;3.30;99.90;;;2.24;91.81;98768.31;5056686;28;20650;-74
2023/03/07 04:48:31;;;;;;;17.53;13.67;;;3.30;99.90;;;2.24;91.58;98777.06;5055924;28;20251;-73
2023/03/07 04:51:04;;;;;;;19.00;13.37;;;3.30;99.90;;;2.25;91.45;98770.81;5056799;28;20202;-74
2023/03/07 04:53:35;;;;;;;20.27;14.13;;;3.30;99.90;;;2.24;91.62;98773.59;5056683;28;20284;-74
2023/03/07 04:56:11;;;;;;;21.67;14.33;;;3.30;99.90;;;2.25;91.87;98762.91;5057016;28;20191;-74
2023/03/07 04:58:43;;;;;;;21.13;14.17;;;3.30;99.90;;;2.25;91.92;98776.09;5056980;28;20197;-74
2023/03/07 05:01:16;;;;;;;18.97;13.00;;;3.30;99.90;;;2.24;92.07;98758.59;5056899;28;20198;-74
2023/03/07 05:03:48;;;;;;;15.73;13.47;;;3.20;99.90;;;2.25;92.22;98757.63;5057365;28;20233;-74
2023/03/07 05:06:20;;;;;;;18.27;12.50;;;3.30;99.90;;;2.25;92.43;98762.91;5056748;28;20194;-73
2023/03/07 05:08:53;;;;;;;18.10;12.93;;;3.30;99.90;;;2.25;91.82;98760.25;5056758;28;20187;-74
2023/03/07 05:11:25;;;;;;;16.67;13.03;;;3.30;99.90;;;2.27;91.96;98766.19;5056181;28;20639;-75
2023/03/07 05:13:57;;;;;;;15.63;12.67;;;3.30;99.90;;;2.26;92.22;98764.53;5056148;28;20237;-75
2023/03/07 05:16:30;;;;;;;18.63;14.37;;;3.30;99.90;;;2.28;92.28;98765.22;5056327;28;20217;-75
2023/03/07 05:19:01;;;;;;;21.50;14.23;;;3.30;99.90;;;2.28;92.63;98773.16;5056351;28;20199;-74
2023/03/07 05:21:38;;;;;;;15.77;12.87;;;3.30;99.90;;;2.31;93.07;98772.81;5056346;28;20190;-74
2023/03/07 05:24:08;;;;;;;17.10;12.10;;;3.30;99.90;;;2.33;91.59;98785.88;5055901;28;20316;-74
2023/03/07 05:26:40;;;;;;;15.43;11.17;;;3.30;99.90;;;2.28;91.41;98790.78;5056262;28;20210;-74
2023/03/07 05:29:12;;;;;;;14.43;10.00;;;3.30;99.90;;;2.13;90.97;98801.06;5056197;28;20202;-74
2023/03/07 05:31:46;;;;;;;11.40;8.30;;;3.20;99.90;;;2.00;91.41;98814.69;5055785;28;20190;-75
2023/03/07 05:34:18;;;;;;;9.17;6.23;;;3.00;99.90;;;1.97;90.97;98811.53;5056046;28;20218;-74
2023/03/07 05:36:50;;;;;;;5.20;4.70;;;3.00;99.90;;;1.85;89.76;98805.63;5055728;28;20552;-74
2023/03/07 05:39:23;;;;;;;5.93;5.00;;;2.90;99.90;;;1.76;89.91;98818.91;5056003;28;20205;-74
2023/03/07 05:41:54;;;;;;;5.73;4.90;;;2.80;99.90;;;1.73;89.92;98819.22;5055601;28;20696;-73
2023/03/07 05:44:26;;;;;;;6.97;4.77;;;2.70;99.90;;;1.75;89.42;98809.34;5055069;28;20232;-75
2023/03/07 05:46:59;;;;;;;6.13;4.37;;;2.80;99.90;;;1.68;89.30;98810.97;5056085;28;20194;-74
2023/03/07 05:49:31;;;;;;;6.63;4.23;;;2.70;99.90;;;1.68;89.30;98808.31;5055736;28;20186;-74
2023/03/07 05:52:03;;;;;;;7.03;3.97;;;2.70;99.90;;;1.65;89.22;98805.94;5055331;28;20248;-73
2023/03/07 05:54:35;;;;;;;5.50;3.57;;;2.70;99.90;;;1.64;88.82;98793.78;5055651;28;20230;-73
2023/03/07 05:57:08;;;;;;;7.43;3.27;;;2.70;99.90;;;1.65;88.35;98798.03;5055687;28;20186;-73
2023/03/07 05:59:39;;;;;;;5.47;2.73;;;2.70;99.90;;;1.60;88.34;98790.59;5055608;28;20248;-73
2023/03/07 06:02:12;;;;;;;6.90;3.13;;;2.60;99.90;;;1.58;88.84;98789.06;5055563;28;20273;-74
2023/03/07 06:04:45;;;;;;;4.03;2.10;;;2.60;99.90;;;1.59;88.59;98803.94;5055419;28;20222;-73
2023/03/07 06:07:18;;;;;;;5.17;2.30;;;2.60;99.90;;;1.59;88.32;98796.00;5055848;28;20198;-73
2023/03/07 06:09:50;;;;;;;7.93;1.90;;;2.60;99.90;;;1.58;88.33;98795.19;5055394;28;20191;-73
2023/03/07 06:12:22;;;;;;;5.67;2.00;;;2.60;99.90;;;1.57;88.03;98777.72;5055310;28;20195;-74
2023/03/07 06:14:54;;;;;;;4.83;1.90;;;2.60;99.90;;;1.59;87.87;98774.91;5055144;28;20234;-74
2023/03/07 06:17:27;;;;;;;6.40;2.23;;;2.60;99.90;;;1.62;87.55;98777.25;5055244;28;20201;-75
2023/03/07 06:19:59;;;;;;;3.47;1.80;;;2.60;99.90;;;1.65;87.29;98769.03;5055214;28;20191;-75
2023/03/07 06:22:33;;;;;;;9.83;2.10;;;2.70;99.90;;;1.69;86.99;98767.75;5055177;28;20269;-74
2023/03/07 06:25:05;;;;;;;7.60;2.13;;;2.70;99.90;;;1.71;87.02;98763.16;5054852;28;20308;-75
2023/03/07 06:27:39;;;;;;;4.50;1.83;;;2.70;99.90;;;1.76;86.03;98760.88;5055138;28;20194;-74
2023/03/07 06:30:14;;;;;;;10.10;3.10;;;2.80;99.90;;;1.79;85.85;98755.28;5055133;28;20281;-64
2023/03/07 06:32:47;;;;;;;7.13;3.00;;;2.80;99.90;;;1.81;85.91;98754.19;5055015;28;20221;-76
2023/03/07 06:35:19;;;;;;;17.07;5.93;;;2.80;99.90;;;1.83;86.11;98762.75;5055269;28;20194;-77
2023/03/07 06:37:53;;;;;;;15.43;6.07;;;2.80;99.90;;;1.84;86.52;98760.97;5055149;28;20209;-77
2023/03/07 06:40:25;;;;;;;12.10;4.27;;;2.90;99.90;;;1.83;86.53;98767.22;5055056;28;20193;-77
2023/03/07 06:42:57;;;;;;;14.80;4.43;;;2.80;99.90;;;1.84;87.05;98758.31;5054997;28;20186;-77
2023/03/07 06:45:29;;;;;;;9.77;3.47;;;2.90;99.90;;;1.86;86.45;98766.91;5054816;28;20543;-77
2023/03/07 06:48:02;;;;;;;10.67;3.87;;;2.90;99.90;;;1.88;87.09;98764.94;5054697;28;20609;-76
2023/03/07 06:50:34;;;;;;;13.03;4.23;;;2.90;99.90;;;1.91;86.89;98764.66;5054689;28;20200;-77
2023/03/07 06:53:06;;;;;;;7.57;2.20;;;2.90;99.90;;;1.92;86.81;98763.63;5054856;28;20226;-75
2023/03/07 06:55:38;;;;;;;4.67;2.70;;;2.90;99.90;;;1.93;87.34;98781.13;5054875;28;20201;-76
2023/03/07 06:58:10;;;;;;;6.90;2.87;;;2.90;99.90;;;1.93;87.20;98774.06;5054752;28;20194;-76
2023/03/07 07:00:42;;;;;;;8.17;3.07;;;3.00;99.90;;;1.94;87.44;98780.16;5054836;28;20195;-76
2023/03/07 07:03:18;;;;;;;9.83;3.80;;;3.00;99.90;;;1.93;86.72;98776.69;5054783;28;20222;-76
2023/03/07 07:05:50;;;;;;;13.87;4.23;;;3.00;99.90;;;1.98;85.41;98776.25;5054716;28;20220;-77
2023/03/07 07:08:22;;;;;;;11.90;4.80;;;3.00;99.90;;;2.03;84.86;98773.94;5054381;28;20186;-77
2023/03/07 07:10:54;;;;;;;12.63;4.40;;;3.00;99.90;;;2.05;83.95;98772.00;5054597;28;20190;-77
2023/03/07 07:13:26;;;;;;;6.10;3.70;;;3.10;99.90;;;2.07;83.93;98771.84;5054495;28;20225;-77
2023/03/07 07:16:03;;;;;;;12.57;4.20;;;3.10;99.90;;;2.11;82.87;98781.09;5054381;28;20217;-77
2023/03/07 07:18:36;;;;;;;8.03;3.20;;;3.10;99.90;;;2.12;82.26;98782.78;5054325;28;20194;-77
2023/03/07 07:21:09;;;;;;;5.40;2.40;;;3.10;99.90;;;2.13;82.24;98779.13;5054628;28;20194;-77
2023/03/07 07:23:41;;;;;;;6.27;2.60;;;3.10;99.90;;;2.13;81.72;98779.97;5056343;28;20226;-77
2023/03/07 07:26:13;;;;;;;7.87;3.40;;;3.10;99.90;;;2.12;82.45;98788.88;5058902;28;20198;-77
2023/03/07 07:28:45;;;;;;;4.50;2.87;;;3.10;99.90;;;2.12;82.89;98788.88;5058167;28;20194;-77
2023/03/07 07:31:17;;;;;;;4.17;2.60;;;3.10;99.90;;;2.13;82.10;98781.78;5056840;28;20200;-77
2023/03/07 07:33:50;;;;;;;8.00;3.30;;;3.10;99.90;;;2.13;82.56;98795.81;5057146;28;20789;-77
2023/03/07 07:36:22;;;;;;;5.60;2.70;;;3.10;99.90;;;2.15;81.30;98793.84;5057924;28;20195;-77
2023/03/07 07:38:54;;;;;;;4.73;2.40;;;3.20;99.90;;;2.20;82.24;98791.56;5060146;28;20217;-76
2023/03/07 07:41:26;;;;;;;5.23;2.30;;;3.20;99.90;;;2.29;79.87;98795.94;5058083;28;20197;-77
2023/03/07 07:43:59;;;;;;;5.83;2.27;;;3.30;99.90;;;2.28;80.17;98791.63;5054500;28;20253;-76
2023/03/07 07:46:31;;;;;;;5.67;2.33;;;3.30;99.90;;;2.29;80.91;98798.56;5054453;28;20213;-76
2023/03/07 07:49:04;;;;;;;4.47;2.50;;;3.30;99.90;;;2.29;80.41;98795.09;5054445;28;20186;-77
2023/03/07 07:51:36;;;;;;;5.73;2.60;;;3.30;99.90;;;2.29;81.35;98798.56;5054228;28;20198;-77
2023/03/07 07:54:08;;;;;;;4.73;2.57;;;3.30;99.90;;;2.29;81.40;98803.03;5054341;28;20230;-77
2023/03/07 07:56:41;;;;;;;7.80;2.67;;;3.40;99.90;;;2.28;81.48;98799.53;5054221;28;20198;-77
2023/03/07 07:59:13;;;;;;;7.83;2.90;;;3.30;99.90;;;2.29;80.71;98803.03;5054254;28;20194;-77
2023/03/07 08:01:47;;;;;;;5.03;2.40;;;3.30;99.90;;;2.31;80.46;98795.75;5054085;28;20643;-77
2023/03/07 08:04:20;;;;;;;6.30;2.47;;;3.30;99.90;;;2.32;80.34;98800.06;5053614;28;20262;-77
2023/03/07 08:06:52;;;;;;;6.17;2.50;;;3.30;99.90;;;2.35;80.27;98786.56;5053075;28;20191;-77
2023/03/07 08:09:24;;;;;;;7.83;2.40;;;3.40;99.90;;;2.36;80.11;98785.56;5053947;28;20194;-77
2023/03/07 08:11:56;;;;;;;6.10;3.03;;;3.40;99.90;;;2.34;80.58;98793.63;5053740;28;20201;-77
2023/03/07 08:14:27;;;;;;;6.27;2.60;;;3.40;99.90;;;2.36;81.07;98785.56;5053086;28;20225;-76
2023/03/07 08:16:59;;;;;;;5.43;2.40;;;3.40;99.90;;;2.35;81.18;98790.03;5053597;28;20553;-76
2023/03/07 08:19:32;;;;;;;6.33;2.87;;;3.40;99.90;;;2.36;80.20;98798.78;5053528;28;20186;-76
2023/03/07 08:22:04;;;;;;;7.07;2.37;;;3.30;99.90;;;2.34;79.84;98795.44;5053454;28;20201;-76
2023/03/07 08:24:37;;;;;;;6.07;2.90;;;3.40;99.90;;;2.33;80.38;98797.25;5053059;28;20714;-76
2023/03/07 08:27:12;;;;;;;3.73;2.10;;;3.30;99.90;;;2.31;80.09;98809.78;5053355;28;20240;-76
2023/03/07 08:29:47;;;;;;;5.97;2.47;;;3.30;99.90;;;2.29;80.85;98806.50;5053412;28;20194;-76
2023/03/07 08:32:19;;;;;;;5.83;2.00;;;3.30;99.90;;;2.31;80.42;98807.16;5053065;28;20194;-76
2023/03/07 08:34:52;;;;;;;6.93;2.47;;;3.30;99.90;;;2.27;80.51;98807.59;5052881;28;20226;-76
2023/03/07 08:37:24;;;;;;;4.23;2.27;;;3.30;99.90;;;2.28;81.70;98810.09;5053446;28;20229;-76
2023/03/07 08:39:56;;;;;;;4.87;2.10;;;3.30;99.90;;;2.28;80.95;98817.19;5053284;28;20187;-76
2023/03/07 08:42:28;;;;;;;5.00;2.60;;;3.30;99.90;;;2.27;81.20;98816.38;5053193;28;20190;-76
2023/03/07 08:45:00;;;;;;;4.53;2.10;;;3.30;99.90;;;2.26;81.37;98812.06;5053375;28;20254;-76
2023/03/07 08:47:32;;;;;;;5.30;2.10;;;3.30;99.90;;;2.27;81.55;98819.00;5053206;28;20195;-76
2023/03/07 08:50:08;;;;;;;4.97;2.37;;;3.30;99.90;;;2.25;81.33;98815.69;5053381;28;20191;-76
2023/03/07 08:52:42;;;;;;;4.43;2.40;;;3.30;99.90;;;2.24;82.20;98823.75;5052832;28;20186;-76
2023/03/07 08:55:15;;;;;;;3.33;2.37;;;3.30;99.90;;;2.22;82.12;98825.75;5053156;28;20305;-76
2023/03/07 08:57:47;;;;;;;5.53;2.40;;;3.20;99.90;;;2.22;83.01;98821.28;5054664;28;20199;-76
2023/03/07 09:00:20;;;;;;;5.03;2.50;;;3.20;99.90;;;2.21;82.69;98830.19;5054979;28;20186;-76
2023/03/07 09:02:53;;;;;;;5.63;2.30;;;3.20;99.90;;;2.20;82.59;98822.41;5052931;28;20274;-76
2023/03/07 09:05:26;;;;;;;3.93;2.10;;;3.20;99.90;;;2.18;82.48;98829.66;5052964;28;20202;-76
2023/03/07 09:07:58;;;;;;;6.07;1.90;;;3.20;99.90;;;2.07;82.50;98833.38;5052637;28;20202;-76
2023/03/07 09:10:30;;;;;;;7.73;2.60;;;3.10;99.90;;;2.09;83.79;98841.16;5052649;28;20586;-76
2023/03/07 09:13:02;;;;;;;4.27;1.90;;;3.10;99.90;;;2.02;84.92;98847.03;5052862;28;20236;-75
2023/03/07 09:15:34;;;;;;;3.20;1.80;;;3.00;99.90;;;1.97;84.14;98840.56;5052518;28;20244;-75
2023/03/07 09:18:06;;;;;;;6.87;2.10;;;3.00;99.90;;;1.96;84.73;98836.25;5052867;28;20632;-75
2023/03/07 09:20:39;;;;;;;3.80;1.80;;;3.00;99.90;;;1.89;84.95;98845.75;5056380;28;20190;-75
2023/03/07 09:23:12;;;;;;;5.13;2.00;;;2.90;99.90;;;1.84;86.37;98838.31;5056661;28;20222;-76
2023/03/07 09:25:44;;;;;;;5.80;1.80;;;2.90;99.90;;;1.79;86.04;98831.81;5056041;28;20193;-76
2023/03/07 09:28:15;;;;;;;3.73;1.90;;;2.80;99.90;;;1.81;87.14;98833.34;5056271;28;20199;-76
2023/03/07 09:30:47;;;;;;;7.13;2.20;;;2.80;99.90;;;1.83;87.04;98835.81;5056237;28;20281;-76
2023/03/07 09:33:19;;;;;;;6.37;1.93;;;2.80;99.90;;;1.79;87.09;98840.56;5055918;28;20707;-76
2023/03/07 09:35:53;;;;;;;5.00;1.87;;;2.80;99.90;;;1.72;87.85;98838.66;5056205;28;20221;-76
2023/03/07 09:38:25;;;;;;;5.73;1.90;;;2.80;99.90;;;1.64;87.93;98835.97;5056004;28;20226;-76
2023/03/07 09:41:01;;;;;;;4.50;1.90;;;2.70;99.90;;;1.62;88.67;98835.28;5056091;28;20195;-76
2023/03/07 09:43:50;;;;;;;5.63;1.90;;;2.60;99.90;;;1.64;88.49;98841.25;5056089;28;20232;-76
2023/03/07 09:46:39;;;;;;;5.50;2.00;;;2.70;99.90;;;1.67;88.61;98840.94;5056023;28;20187;-77
2023/03/07 09:49:33;;;;;;;5.77;1.93;;;2.70;99.90;;;1.59;88.50;98835.56;5055916;28;20193;-76
2023/03/07 09:52:14;;;;;;;2.23;1.60;;;2.60;99.90;;;1.63;88.75;98836.94;5055577;28;20544;-76
2023/03/07 09:54:55;;;;;;;5.30;1.80;;;2.60;99.90;;;1.67;88.58;98838.31;5055629;28;20316;-76
2023/03/07 09:57:34;;;;;;;3.33;1.67;;;2.70;99.90;;;1.63;88.51;98836.94;5055483;28;20193;-76
2023/03/07 10:00:19;;;;;;;5.27;2.00;;;2.60;99.90;;;1.57;88.81;98841.00;5055724;28;20228;-76
2023/03/07 10:03:02;;;;;;;3.57;1.80;;;2.60;99.90;;;1.52;89.03;98838.81;5056059;28;20206;-75
2023/03/07 10:05:41;;;;;;;7.37;2.10;;;2.60;99.90;;;1.40;88.77;98839.19;5055576;28;20193;-75
2023/03/07 10:08:21;;;;;;;4.70;2.13;;;2.50;99.90;;;1.43;89.22;98838.88;5055283;28;20652;-75
2023/03/07 10:11:04;;;;;;;7.30;1.90;;;2.50;99.90;;;1.44;89.18;98838.72;5055297;28;20240;-75
2023/03/07 10:13:59;;;;;;;3.80;2.00;;;2.50;99.90;;;1.34;89.64;98837.97;5055388;28;20240;-75
2023/03/07 10:16:43;;;;;;;5.07;2.17;;;2.40;99.90;;;1.34;89.69;98845.03;5055190;28;20225;-75
2023/03/07 10:19:29;;;;;;;9.17;2.40;;;2.40;99.90;;;1.35;90.27;98842.25;5055349;28;20198;-75
2023/03/07 10:22:14;;;;;;;5.70;2.20;;;2.40;99.90;;;1.25;89.86;98836.22;5055043;28;20632;-75
2023/03/07 10:25:04;;;;;;;6.03;2.10;;;2.30;99.90;;;1.28;90.09;98841.19;5055189;28;20230;-75
2023/03/07 10:27:37;;;;;;;4.87;2.17;;;2.30;99.90;;;1.31;90.10;98834.78;5055234;28;20205;-75
2023/03/07 10:30:17;;;;;;;4.97;1.90;;;2.40;99.90;;;1.33;90.18;98843.41;5054758;28;20538;-75
2023/03/07 10:32:56;;;;;;;3.70;2.17;;;2.40;99.90;;;1.36;90.15;98843.09;5054805;28;20635;-76
2023/03/07 10:35:40;;;;;;;4.03;2.07;;;2.40;99.90;;;1.31;90.26;98846.16;5054789;28;20700;-76
2023/03/07 10:38:23;;;;;;;5.93;2.53;;;2.40;99.90;;;1.35;90.17;98847.53;5055282;28;20244;-76
2023/03/07 10:41:01;;;;;;;4.60;2.20;;;2.40;99.90;;;1.40;90.13;98844.47;5055194;28;20191;-76
2023/03/07 10:43:36;;;;;;;5.40;2.20;;;2.40;99.90;;;1.30;90.00;98848.97;5054782;28;20587;-78
2023/03/07 10:46:17;;;;;;;5.57;2.33;;;2.40;99.90;;;1.32;90.60;98847.84;5055134;28;20197;-76
2023/03/07 10:49:07;;;;;;;2.73;1.80;;;2.40;99.90;;;1.40;90.86;98850.56;5055002;28;20186;-77
2023/03/07 10:51:53;;;;;;;5.13;2.00;;;2.40;99.90;;;1.34;90.20;98853.78;5055138;28;20190;-77
2023/03/07 10:54:31;;;;;;;2.87;1.77;;;2.30;99.90;;;1.36;90.85;98849.19;5054609;28;20710;-76